Time;durP1;ratioP1;P1;durP2;ratioP2;P2;SDS_P1;SDS_P2;PMS_P1;PMS_P2;Temp;Humidity;BMP_temperature;BMP_pressure;BME280_temperature;BME280_humidity;BME280_pressure;Samples;Min_cycle;Max_cycle;Signal;HPM_P1;HPM_P2
2022/11/15 00:00:25;;;;;;;;;;;7.50;99.90;;;;;;4975343;28;19930;-69
2022/11/15 00:02:54;;;;;;;;;;;7.40;99.90;;;;;;4930781;28;167673;-69
2022/11/15 00:05:20;;;;;;;;;;;7.40;99.90;;;;;;4974915;28;19945;-69
2022/11/15 00:07:46;;;;;;;;;;;7.30;99.90;;;;;;4925840;28;210612;-69
2022/11/15 00:10:12;;;;;;;;;;;7.30;99.90;;;;;;4969154;28;19922;-69
2022/11/15 00:12:38;;;;;;;;;;;7.30;99.90;;;;;;4938210;28;244804;-69
2022/11/15 00:15:04;;;;;;;;;;;7.30;99.90;;;;;;5000114;28;19928;-69
2022/11/15 00:17:30;;;;;;;;;;;7.40;99.90;;;;;;4931960;28;211467;-68
2022/11/15 00:19:56;;;;;;;;;;;7.40;99.90;;;;;;5001043;28;19926;-68
2022/11/15 00:22:22;;;;;;;;;;;7.50;99.90;;;;;;4944791;28;213332;-69
2022/11/15 00:24:48;;;;;;;;;;;7.50;99.90;;;;;;4947537;28;19930;-69
2022/11/15 00:27:14;;;;;;;;;;;7.50;99.90;;;;;;4919344;28;230129;-69
2022/11/15 00:29:43;;;;;;;;;;;7.50;99.90;;;;;;4962103;28;19926;-69
2022/11/15 00:32:09;;;;;;;;;;;7.60;99.90;;;;;;4906787;28;220542;-69
2022/11/15 00:34:35;;;;;;;;;;;7.60;99.90;;;;;;5009326;28;19922;-69
2022/11/15 00:37:01;;;;;;;;;;;7.60;99.90;;;;;;4932843;28;223307;-69
2022/11/15 00:39:27;;;;;;;;;;;7.70;99.90;;;;;;5013586;28;20094;-69
2022/11/15 00:41:53;;;;;;;;;;;7.70;99.90;;;;;;4957092;28;217019;-70
2022/11/15 00:44:19;;;;;;;;;;;7.70;99.90;;;;;;4980632;28;205872;-69
2022/11/15 00:46:45;;;;;;;;;;;7.70;99.90;;;;;;4976695;28;19933;-69
2022/11/15 00:49:11;;;;;;;;;;;7.70;99.90;;;;;;4955670;28;238984;-69
2022/11/15 00:51:37;;;;;;;;;;;7.70;99.90;;;;;;4973576;28;20402;-69
2022/11/15 00:54:03;;;;;;;;;;;7.70;99.90;;;;;;4918977;28;210615;-69
2022/11/15 00:56:29;;;;;;;;;;;7.70;99.90;;;;;;4952962;28;19930;-69
2022/11/15 00:58:55;;;;;;;;;;;7.70;99.90;;;;;;4931384;28;245508;-69
2022/11/15 01:01:21;;;;;;;;;;;7.70;99.90;;;;;;4982475;28;19922;-69
2022/11/15 01:03:47;;;;;;;;;;;7.70;99.90;;;;;;4948111;28;219310;-69
2022/11/15 01:06:13;;;;;;;;;;;7.70;99.90;;;;;;4972287;28;19922;-69
2022/11/15 01:08:39;;;;;;;;;;;7.70;99.90;;;;;;4935100;28;212049;-69
2022/11/15 01:11:07;;;;;;;;;;;7.70;99.90;;;;;;4953407;28;19933;-69
2022/11/15 01:13:34;;;;;;;;;;;7.70;99.90;;;;;;4955724;28;215901;-69
2022/11/15 01:16:26;;;;;;;;;;;7.70;99.90;;;;;;4971034;28;19922;-69
2022/11/15 01:18:52;;;;;;;;;;;7.70;99.90;;;;;;4943890;28;170913;-69
2022/11/15 01:21:19;;;;;;;;;;;7.70;99.90;;;;;;4972337;28;19933;-68
2022/11/15 01:23:45;;;;;;;;;;;7.70;99.90;;;;;;4944355;28;225932;-69
2022/11/15 01:26:12;;;;;;;;;;;7.70;99.90;;;;;;4971041;28;20016;-69
2022/11/15 01:28:39;;;;;;;;;;;7.70;99.90;;;;;;4946413;28;209394;-69
2022/11/15 01:31:06;;;;;;;;;;;7.70;99.90;;;;;;4972858;28;19926;-70
2022/11/15 01:33:34;;;;;;;;;;;7.70;99.90;;;;;;4962402;28;215395;-70
2022/11/15 01:36:03;;;;;;;;;;;7.70;99.90;;;;;;4985590;28;19922;-70
2022/11/15 01:38:29;;;;;;;;;;;7.70;99.90;;;;;;4948953;28;207409;-69
2022/11/15 01:40:55;;;;;;;;;;;7.70;99.90;;;;;;4963213;28;19927;-70
2022/11/15 01:43:21;;;;;;;;;;;7.70;99.90;;;;;;4936989;28;237666;-69
2022/11/15 01:45:52;;;;;;;;;;;7.60;99.90;;;;;;4967625;28;19969;-69
2022/11/15 01:48:18;;;;;;;;;;;7.60;99.90;;;;;;4930479;28;168536;-69
2022/11/15 01:50:44;;;;;;;;;;;7.60;99.90;;;;;;4955783;28;19929;-69
2022/11/15 01:53:10;;;;;;;;;;;7.60;99.90;;;;;;4948357;28;134382;-70
2022/11/15 01:55:36;;;;;;;;;;;7.60;99.90;;;;;;4964440;28;19922;-69
2022/11/15 01:58:04;;;;;;;;;;;7.60;99.90;;;;;;4934700;28;213012;-70
2022/11/15 02:00:30;;;;;;;;;;;7.60;99.90;;;;;;4992819;28;19930;-69
2022/11/15 02:02:56;;;;;;;;;;;7.60;99.90;;;;;;4932560;28;219038;-69
2022/11/15 02:05:22;;;;;;;;;;;7.60;99.90;;;;;;4995692;28;19930;-69
2022/11/15 02:07:48;;;;;;;;;;;7.60;99.90;;;;;;4936987;28;234158;-71
2022/11/15 02:10:18;;;;;;;;;;;7.60;99.90;;;;;;4963456;28;19926;-69
2022/11/15 02:12:44;;;;;;;;;;;7.60;99.90;;;;;;4953771;28;154715;-69
2022/11/15 02:15:11;;;;;;;;;;;7.60;99.90;;;;;;5005762;28;19996;-68
2022/11/15 02:17:42;;;;;;;;;;;7.60;99.90;;;;;;4927352;28;213859;-68
2022/11/15 02:20:28;;;;;;;;;;;7.60;99.90;;;;;;4970432;28;19952;-69
2022/11/15 02:23:09;;;;;;;;;;;7.60;99.90;;;;;;4940924;28;216086;-69
2022/11/15 02:25:50;;;;;;;;;;;7.60;99.90;;;;;;4973905;28;19926;-68
2022/11/15 02:28:28;;;;;;;;;;;7.60;99.90;;;;;;4951231;28;216020;-68
2022/11/15 02:31:00;;;;;;;;;;;7.60;99.90;;;;;;4979810;28;19956;-68
2022/11/15 02:33:31;;;;;;;;;;;7.60;99.90;;;;;;4950013;28;232336;-68
2022/11/15 02:36:00;;;;;;;;;;;7.70;99.90;;;;;;4983356;28;19922;-68
2022/11/15 02:38:29;;;;;;;;;;;7.60;99.90;;;;;;4953576;28;207620;-68
2022/11/15 02:41:01;;;;;;;;;;;7.60;99.90;;;;;;4990573;28;19934;-69
2022/11/15 02:43:57;;;;;;;;;;;7.70;99.90;;;;;;4942286;28;214974;-69
2022/11/15 02:49:22;;;;;;;;;;;7.70;99.90;;;;;;4965890;28;191982;-70
2022/11/15 02:51:49;;;;;;;;;;;7.70;99.90;;;;;;4993406;28;19926;-69
2022/11/15 02:54:20;;;;;;;;;;;7.70;99.90;;;;;;4976043;28;94734;-69
2022/11/15 02:56:46;;;;;;;;;;;7.70;99.90;;;;;;4990516;28;19926;-69
2022/11/15 02:59:15;;;;;;;;;;;7.70;99.90;;;;;;4952947;28;213734;-69
2022/11/15 03:01:50;;;;;;;;;;;7.70;99.90;;;;;;4975271;28;20306;-68
2022/11/15 03:04:16;;;;;;;;;;;7.80;99.90;;;;;;4958218;28;236326;-69
2022/11/15 03:07:02;;;;;;;;;;;7.80;99.90;;;;;;4978681;28;19926;-69
2022/11/15 03:09:34;;;;;;;;;;;7.80;99.90;;;;;;4929932;28;206130;-69
2022/11/15 03:12:03;;;;;;;;;;;7.80;99.90;;;;;;4942266;28;208346;-68
2022/11/15 03:14:32;;;;;;;;;;;7.80;99.90;;;;;;4979519;28;19923;-69
2022/11/15 03:17:03;;;;;;;;;;;7.80;99.90;;;;;;4925164;28;233937;-69
2022/11/15 03:19:35;;;;;;;;;;;7.80;99.90;;;;;;4946935;28;19930;-69
2022/11/15 03:22:03;;;;;;;;;;;7.90;99.90;;;;;;4904301;28;243847;-69
2022/11/15 03:24:30;;;;;;;;;;;7.90;99.90;;;;;;4973448;28;19933;-69
2022/11/15 03:26:59;;;;;;;;;;;7.90;99.90;;;;;;4927384;28;207492;-69
2022/11/15 03:29:27;;;;;;;;;;;7.90;99.90;;;;;;4994687;28;19933;-69
2022/11/15 03:31:55;;;;;;;;;;;8.00;99.90;;;;;;4957595;28;216054;-69
2022/11/15 03:34:25;;;;;;;;;;;8.00;99.90;;;;;;4951621;28;20296;-69
2022/11/15 03:36:52;;;;;;;;;;;8.00;99.90;;;;;;4952220;28;216046;-69
2022/11/15 03:39:19;;;;;;;;;;;8.00;99.90;;;;;;4978890;28;243866;-69
2022/11/15 03:42:05;;;;;;;;;;;8.00;99.90;;;;;;4987049;28;20359;-69
2022/11/15 03:44:47;;;;;;;;;;;8.10;99.90;;;;;;4928350;28;207717;-69
2022/11/15 03:47:20;;;;;;;;;;;8.10;99.90;;;;;;4927855;28;207400;-69
2022/11/15 03:49:49;;;;;;;;;;;8.10;99.90;;;;;;5005053;28;19925;-69
2022/11/15 03:52:17;;;;;;;;;;;8.10;99.90;;;;;;4925457;28;201336;-70
2022/11/15 03:54:53;;;;;;;;;;;8.10;99.90;;;;;;5011391;28;19925;-72
2022/11/15 03:57:19;;;;;;;;;;;8.20;99.90;;;;;;4965157;28;112609;-71
2022/11/15 03:59:45;;;;;;;;;;;8.10;99.90;;;;;;5005495;28;19934;-70
2022/11/15 04:02:11;;;;;;;;;;;8.20;99.90;;;;;;4919151;28;209724;-70
2022/11/15 04:04:37;;;;;;;;;;;8.10;99.90;;;;;;4973258;28;19939;-71
2022/11/15 04:07:03;;;;;;;;;;;8.20;99.90;;;;;;4946287;28;215943;-71
2022/11/15 04:09:29;;;;;;;;;;;8.20;99.90;;;;;;4994821;28;19934;-72
2022/11/15 04:11:55;;;;;;;;;;;8.20;99.90;;;;;;4969118;28;209938;-74
2022/11/15 04:14:21;;;;;;;;;;;8.20;99.90;;;;;;4938785;28;20066;-72
2022/11/15 04:16:47;;;;;;;;;;;8.20;99.90;;;;;;4975486;28;19987;-73
2022/11/15 04:24:42;;;;;;;;;;;8.20;99.90;;;;;;4965211;28;19922;-73
2022/11/15 04:27:08;;;;;;;;;;;8.20;99.90;;;;;;4910279;28;241271;-73
2022/11/15 04:29:34;;;;;;;;;;;8.20;99.90;;;;;;5013606;28;19926;-70
2022/11/15 04:32:04;;;;;;;;;;;8.20;99.90;;;;;;4955423;28;237270;-70
2022/11/15 04:34:30;;;;;;;;;;;8.30;99.90;;;;;;4966455;28;19929;-70
2022/11/15 04:37:11;;;;;;;;;;;8.30;99.90;;;;;;4968272;28;212311;-71
2022/11/15 04:39:37;;;;;;;;;;;8.30;99.90;;;;;;4994532;28;20318;-71
2022/11/15 04:42:03;;;;;;;;;;;8.40;99.90;;;;;;4941225;28;206814;-71
2022/11/15 04:44:29;;;;;;;;;;;8.40;99.90;;;;;;4982740;28;19922;-72
2022/11/15 04:46:55;;;;;;;;;;;8.40;99.90;;;;;;4956699;28;216008;-71
2022/11/15 04:49:22;;;;;;;;;;;8.40;99.90;;;;;;4970029;28;20334;-71
2022/11/15 04:51:48;;;;;;;;;;;8.40;99.90;;;;;;4975161;28;19949;-71
2022/11/15 04:54:13;;;;;;;;;;;8.40;99.90;;;;;;4967644;28;206306;-71
2022/11/15 04:56:39;;;;;;;;;;;8.50;99.90;;;;;;4978558;28;19932;-71
2022/11/15 04:59:05;;;;;;;;;;;8.60;99.90;;;;;;4971643;28;206429;-71
2022/11/15 05:01:31;;;;;;;;;;;8.60;99.90;;;;;;4968919;28;19983;-71
2022/11/15 05:06:42;;;;;;;;;;;8.60;99.90;;;;;;4974720;28;19936;-71
2022/11/15 05:09:08;;;;;;;;;;;8.60;99.90;;;;;;4972499;28;149707;-71
2022/11/15 05:11:34;;;;;;;;;;;8.70;99.90;;;;;;4987751;28;20284;-71
2022/11/15 05:14:00;;;;;;;;;;;8.70;99.90;;;;;;4965558;28;206873;-70
2022/11/15 05:16:26;;;;;;;;;;;8.80;99.90;;;;;;4971756;28;19922;-70
2022/11/15 05:18:52;;;;;;;;;;;8.80;99.90;;;;;;4971755;28;203722;-70
2022/11/15 05:21:19;;;;;;;;;;;8.80;99.90;;;;;;5005740;28;19933;-71
2022/11/15 05:23:45;;;;;;;;;;;8.80;99.90;;;;;;4971480;28;212238;-71
2022/11/15 05:26:10;;;;;;;;;;;8.80;99.90;;;;;;4973408;28;19929;-71
2022/11/15 05:28:37;;;;;;;;;;;8.80;99.90;;;;;;4947858;28;224187;-70
2022/11/15 05:31:04;;;;;;;;;;;8.90;99.90;;;;;;4975822;28;20307;-71
2022/11/15 05:33:30;;;;;;;;;;;8.90;99.90;;;;;;4933697;28;237715;-71
2022/11/15 05:36:17;;;;;;;;;;;8.90;99.90;;;;;;4958847;28;19961;-71
2022/11/15 05:38:43;;;;;;;;;;;8.90;99.90;;;;;;4952196;28;171939;-71
2022/11/15 05:41:10;;;;;;;;;;;9.00;99.90;;;;;;4993069;28;19930;-71
2022/11/15 05:43:37;;;;;;;;;;;9.00;99.90;;;;;;4954951;28;168444;-72
2022/11/15 05:46:04;;;;;;;;;;;9.10;99.90;;;;;;4971314;28;20560;-72
2022/11/15 05:48:30;;;;;;;;;;;9.10;99.90;;;;;;4951088;28;213739;-71
2022/11/15 05:50:56;;;;;;;;;;;9.20;99.90;;;;;;4991703;28;19926;-72
2022/11/15 05:53:24;;;;;;;;;;;9.10;99.90;;;;;;4954452;28;206749;-71
2022/11/15 05:55:51;;;;;;;;;;;9.20;99.90;;;;;;4984584;28;19922;-72
2022/11/15 05:58:17;;;;;;;;;;;9.20;99.90;;;;;;4954495;28;211206;-72
2022/11/15 06:00:43;;;;;;;;;;;9.20;99.90;;;;;;4983557;28;19945;-72
2022/11/15 06:03:09;;;;;;;;;;;9.20;99.90;;;;;;4950142;28;169482;-72
2022/11/15 06:05:35;;;;;;;;;;;9.30;99.90;;;;;;4978876;28;19930;-71
2022/11/15 06:08:01;;;;;;;;;;;9.40;99.90;;;;;;4958765;28;151592;-70
2022/11/15 06:10:27;;;;;;;;;;;9.40;99.90;;;;;;4984471;28;19925;-70
2022/11/15 06:13:00;;;;;;;;;;;9.40;99.90;;;;;;4948468;28;151057;-71
2022/11/15 06:15:25;;;;;;;;;;;9.40;99.90;;;;;;4986046;28;19926;-71
2022/11/15 06:17:51;;;;;;;;;;;9.50;99.90;;;;;;4961817;28;131950;-71
2022/11/15 06:20:17;;;;;;;;;;;9.50;99.90;;;;;;4994509;28;19926;-70
2022/11/15 06:22:43;;;;;;;;;;;9.60;99.90;;;;;;4929370;28;212616;-69
2022/11/15 06:25:09;;;;;;;;;;;9.60;99.90;;;;;;4968661;28;20790;-70
2022/11/15 06:27:35;;;;;;;;;;;9.60;99.90;;;;;;4932415;28;207815;-70
2022/11/15 06:30:01;;;;;;;;;;;9.60;99.90;;;;;;4996377;28;19922;-70
2022/11/15 06:32:28;;;;;;;;;;;9.60;99.90;;;;;;4929287;28;217554;-71
2022/11/15 06:34:54;;;;;;;;;;;9.70;99.90;;;;;;5009299;28;20346;-70
2022/11/15 06:37:20;;;;;;;;;;;9.70;99.90;;;;;;4928532;28;212265;-69
2022/11/15 06:39:46;;;;;;;;;;;9.70;99.90;;;;;;5009718;28;19930;-69
2022/11/15 06:42:12;;;;;;;;;;;9.80;99.90;;;;;;4921823;28;208880;-71
2022/11/15 06:44:38;;;;;;;;;;;9.70;99.90;;;;;;5010972;28;19930;-70
2022/11/15 06:47:04;;;;;;;;;;;9.80;99.90;;;;;;4922565;28;222392;-69
2022/11/15 06:49:30;;;;;;;;;;;9.80;99.90;;;;;;4993946;28;19956;-70
2022/11/15 06:51:56;;;;;;;;;;;9.80;99.90;;;;;;4978492;28;212552;-70
2022/11/15 06:54:22;;;;;;;;;;;9.90;99.90;;;;;;4972460;28;19926;-70
2022/11/15 06:56:48;;;;;;;;;;;9.90;99.90;;;;;;4969144;28;19930;-70
2022/11/15 06:59:14;;;;;;;;;;;9.90;99.90;;;;;;4955312;28;208016;-69
2022/11/15 07:01:39;;;;;;;;;;;9.90;99.90;;;;;;4970739;28;20345;-70
2022/11/15 07:04:05;;;;;;;;;;;10.00;99.90;;;;;;4949685;28;210104;-70
2022/11/15 07:06:31;;;;;;;;;;;10.00;99.90;;;;;;4967667;28;20449;-70
2022/11/15 07:08:57;;;;;;;;;;;10.00;99.90;;;;;;4948847;28;207351;-69
2022/11/15 07:11:23;;;;;;;;;;;10.00;99.90;;;;;;5003906;28;19930;-70
2022/11/15 07:13:49;;;;;;;;;;;10.10;99.90;;;;;;4949209;28;206529;-71
2022/11/15 07:16:15;;;;;;;;;;;10.10;99.90;;;;;;4972289;28;20484;-70
2022/11/15 07:18:41;;;;;;;;;;;10.10;99.90;;;;;;4952614;28;149463;-70
2022/11/15 07:21:08;;;;;;;;;;;10.20;99.90;;;;;;4971573;28;20010;-71
2022/11/15 07:23:38;;;;;;;;;;;10.20;99.90;;;;;;4958856;28;210972;-69
2022/11/15 07:26:04;;;;;;;;;;;10.20;99.90;;;;;;4985907;28;20402;-70
2022/11/15 07:28:30;;;;;;;;;;;10.20;99.90;;;;;;4956177;28;208213;-71
2022/11/15 07:30:56;;;;;;;;;;;10.30;99.90;;;;;;4982538;28;20469;-71
2022/11/15 07:33:22;;;;;;;;;;;10.30;99.90;;;;;;4939546;28;207600;-71
2022/11/15 07:35:48;;;;;;;;;;;10.30;99.90;;;;;;4964458;28;20291;-71
2022/11/15 07:38:14;;;;;;;;;;;10.30;99.90;;;;;;4921147;28;207490;-71
2022/11/15 07:40:40;;;;;;;;;;;10.30;99.90;;;;;;4953589;28;19934;-70
2022/11/15 07:43:08;;;;;;;;;;;10.30;99.90;;;;;;4920263;28;218393;-71
2022/11/15 07:45:34;;;;;;;;;;;10.30;99.90;;;;;;4974503;28;19922;-71
2022/11/15 07:48:00;;;;;;;;;;;10.40;99.90;;;;;;4934541;28;210527;-72
2022/11/15 07:50:27;;;;;;;;;;;10.40;99.90;;;;;;4994029;28;19936;-70
2022/11/15 07:52:55;;;;;;;;;;;10.40;99.90;;;;;;4946750;28;213430;-71
2022/11/15 07:55:22;;;;;;;;;;;10.50;99.90;;;;;;5000626;28;19993;-70
2022/11/15 07:57:47;;;;;;;;;;;10.50;99.90;;;;;;4957756;28;186470;-70
2022/11/15 08:00:14;;;;;;;;;;;10.50;99.90;;;;;;4983759;28;19934;-70
2022/11/15 08:02:40;;;;;;;;;;;10.50;99.90;;;;;;4920771;28;209150;-71
2022/11/15 08:05:06;;;;;;;;;;;10.60;99.90;;;;;;4975199;28;19934;-71
2022/11/15 08:07:32;;;;;;;;;;;10.60;99.90;;;;;;4944719;28;180296;-70
2022/11/15 08:09:58;;;;;;;;;;;10.60;99.90;;;;;;4980166;28;20577;-71
2022/11/15 08:12:24;;;;;;;;;;;10.60;99.90;;;;;;4951673;28;207250;-71
2022/11/15 08:14:50;;;;;;;;;;;10.60;99.90;;;;;;4968509;28;19929;-71
2022/11/15 08:17:16;;;;;;;;;;;10.60;99.90;;;;;;4929545;28;208194;-71
2022/11/15 08:19:42;;;;;;;;;;;10.70;99.90;;;;;;5012609;28;20333;-71
2022/11/15 08:22:08;;;;;;;;;;;10.70;99.90;;;;;;4936028;28;237338;-71
2022/11/15 08:24:33;;;;;;;;;;;10.70;99.90;;;;;;4975018;28;19952;-72
2022/11/15 08:26:59;;;;;;;;;;;10.70;99.90;;;;;;4950266;28;207460;-70
2022/11/15 08:29:26;;;;;;;;;;;10.70;99.90;;;;;;4968651;28;20310;-72
2022/11/15 08:31:54;;;;;;;;;;;10.80;99.90;;;;;;4941118;28;214699;-71
2022/11/15 08:34:21;;;;;;;;;;;10.80;99.90;;;;;;4959071;28;216189;-71
2022/11/15 08:36:47;;;;;;;;;;;10.90;99.90;;;;;;5007249;28;20306;-71
2022/11/15 08:39:13;;;;;;;;;;;10.90;99.90;;;;;;4950138;28;206416;-71
2022/11/15 08:41:39;;;;;;;;;;;10.90;99.90;;;;;;4980497;28;19930;-71
2022/11/15 08:44:05;;;;;;;;;;;11.00;99.90;;;;;;4958681;28;207039;-70
2022/11/15 08:46:31;;;;;;;;;;;11.00;99.90;;;;;;4978725;28;19936;-70
2022/11/15 08:48:57;;;;;;;;;;;11.00;99.90;;;;;;4960788;28;213409;-70
2022/11/15 08:51:23;;;;;;;;;;;11.00;99.90;;;;;;4992429;28;19980;-71
2022/11/15 08:53:49;;;;;;;;;;;11.10;99.90;;;;;;4958499;28;218766;-71
2022/11/15 08:56:15;;;;;;;;;;;11.10;99.90;;;;;;4972377;28;19926;-71
2022/11/15 08:58:42;;;;;;;;;;;11.10;99.90;;;;;;4962740;28;219927;-71
2022/11/15 09:01:14;;;;;;;;;;;11.10;99.90;;;;;;4959877;28;19949;-70
2022/11/15 09:03:40;;;;;;;;;;;11.10;99.90;;;;;;4941329;28;209736;-70
2022/11/15 09:06:06;;;;;;;;;;;11.20;99.90;;;;;;4973276;28;19922;-70
2022/11/15 09:08:32;;;;;;;;;;;11.20;99.90;;;;;;4959373;28;206832;-71
2022/11/15 09:10:58;;;;;;;;;;;11.20;99.90;;;;;;4986073;28;20018;-71
2022/11/15 09:13:24;;;;;;;;;;;11.20;99.90;;;;;;4952385;28;208322;-70
2022/11/15 09:15:50;;;;;;;;;;;11.20;99.90;;;;;;4981506;28;19922;-71
2022/11/15 09:18:16;;;;;;;;;;;11.30;99.90;;;;;;4952227;28;207642;-71
2022/11/15 09:20:42;;;;;;;;;;;11.30;99.90;;;;;;4985473;28;19928;-70
2022/11/15 09:23:08;;;;;;;;;;;11.30;99.90;;;;;;4957736;28;213215;-70
2022/11/15 09:25:34;;;;;;;;;;;11.40;99.90;;;;;;4994164;28;19985;-71
2022/11/15 09:28:00;;;;;;;;;;;11.40;99.90;;;;;;4942016;28;218536;-71
2022/11/15 09:30:25;;;;;;;;;;;11.50;99.90;;;;;;4993653;28;20511;-71
2022/11/15 09:32:51;;;;;;;;;;;11.50;99.90;;;;;;4946319;28;206947;-70
2022/11/15 09:35:17;;;;;;;;;;;11.50;99.90;;;;;;5006962;28;19929;-70
2022/11/15 09:37:43;;;;;;;;;;;11.60;99.90;;;;;;4933423;28;215690;-70
2022/11/15 09:40:11;;;;;;;;;;;11.50;99.90;;;;;;4998070;28;20450;-70
2022/11/15 09:42:49;;;;;;;;;;;11.50;99.90;;;;;;4926364;28;204939;-70
2022/11/15 09:45:35;;;;;;;;;;;11.50;99.90;;;;;;4985335;28;19930;-70
2022/11/15 09:48:20;;;;;;;;;;;11.60;99.90;;;;;;4933456;28;163040;-70
2022/11/15 09:50:48;;;;;;;;;;;11.60;99.90;;;;;;4960426;28;19936;-70
2022/11/15 09:53:20;;;;;;;;;;;11.60;99.90;;;;;;4940510;28;221020;-70
2022/11/15 09:56:00;;;;;;;;;;;11.70;99.90;;;;;;4977584;28;19926;-70
2022/11/15 09:58:28;;;;;;;;;;;11.70;99.90;;;;;;4937336;28;165131;-70
2022/11/15 10:00:56;;;;;;;;;;;11.80;99.90;;;;;;4989334;28;19969;-70
2022/11/15 10:03:27;;;;;;;;;;;11.80;99.90;;;;;;4931370;28;157611;-70
2022/11/15 10:05:55;;;;;;;;;;;11.80;99.90;;;;;;4975268;28;19926;-71
2022/11/15 10:08:21;;;;;;;;;;;11.80;99.90;;;;;;4939053;28;133624;-70
2022/11/15 10:10:49;;;;;;;;;;;11.90;99.90;;;;;;4977288;28;19926;-70
2022/11/15 10:13:35;;;;;;;;;;;11.90;99.90;;;;;;4935622;28;206048;-69
2022/11/15 10:16:15;;;;;;;;;;;11.90;99.90;;;;;;4975803;28;19931;-69
2022/11/15 10:18:41;;;;;;;;;;;11.90;99.90;;;;;;4936131;28;218621;-70
2022/11/15 10:21:34;;;;;;;;;;;12.00;99.90;;;;;;4960711;28;19926;-71
2022/11/15 10:23:59;;;;;;;;;;;12.00;99.90;;;;;;4863352;29;207314;-70
2022/11/15 10:26:26;;;;;;;;;;;12.00;99.90;;;;;;4949324;28;20392;-70
2022/11/15 10:28:52;;;;;;;;;;;12.00;99.90;;;;;;4917860;28;175012;-70
2022/11/15 10:31:23;;;;;;;;;;;12.00;99.90;;;;;;4953141;28;19922;-70
2022/11/15 10:33:49;;;;;;;;;;;12.00;99.90;;;;;;4902135;28;144306;-70
2022/11/15 10:36:19;;;;;;;;;;;12.00;99.90;;;;;;4949837;28;19926;-70
2022/11/15 10:38:47;;;;;;;;;;;12.10;99.90;;;;;;4912519;28;206458;-70
2022/11/15 10:41:14;;;;;;;;;;;12.10;99.90;;;;;;4952730;28;19926;-71
2022/11/15 10:43:40;;;;;;;;;;;12.10;99.90;;;;;;4900404;28;207364;-71
2022/11/15 10:46:20;;;;;;;;;;;12.20;99.90;;;;;;4950337;28;20292;-70
2022/11/15 10:48:46;;;;;;;;;;;12.20;99.90;;;;;;4909906;28;190354;-70
2022/11/15 10:51:25;;;;;;;;;;;12.30;99.90;;;;;;4949175;28;20451;-72
2022/11/15 10:53:51;;;;;;;;;;;12.30;99.90;;;;;;4904030;28;207811;-71
2022/11/15 10:56:20;;;;;;;;;;;12.30;99.90;;;;;;4950152;28;20364;-71
2022/11/15 10:58:56;;;;;;;;;;;12.40;99.90;;;;;;4902945;28;212127;-71
2022/11/15 11:01:24;;;;;;;;;;;12.40;99.90;;;;;;4960201;28;19949;-71
2022/11/15 11:04:06;;;;;;;;;;;12.40;99.90;;;;;;4962859;28;206800;-71
2022/11/15 11:06:51;;;;;;;;;;;12.50;99.90;;;;;;4974522;28;19921;-70
2022/11/15 11:09:23;;;;;;;;;;;12.70;99.90;;;;;;4955726;28;206183;-71
2022/11/15 11:11:51;;;;;;;;;;;12.80;99.90;;;;;;4974036;28;19930;-70
2022/11/15 11:14:33;;;;;;;;;;;12.90;99.90;;;;;;4909549;28;197095;-71
2022/11/15 11:17:03;;;;;;;;;;;13.00;99.90;;;;;;4923454;28;204713;-71
2022/11/15 11:19:35;;;;;;;;;;;13.10;99.90;;;;;;5005781;28;20269;-71
2022/11/15 11:22:20;;;;;;;;;;;13.10;99.90;;;;;;4930775;28;209360;-69
2022/11/15 11:24:51;;;;;;;;;;;12.90;99.90;;;;;;5006720;28;19929;-71
2022/11/15 11:27:18;;;;;;;;;;;12.90;99.90;;;;;;4935217;28;209529;-71
2022/11/15 11:29:53;;;;;;;;;;;13.00;99.90;;;;;;5011832;28;19926;-71
2022/11/15 11:32:22;;;;;;;;;;;13.00;99.90;;;;;;4925839;28;226354;-71
2022/11/15 11:35:03;;;;;;;;;;;13.10;99.90;;;;;;5014710;28;19929;-71
2022/11/15 11:37:29;;;;;;;;;;;13.10;99.90;;;;;;4934617;28;207171;-70
2022/11/15 11:39:58;;;;;;;;;;;13.20;99.90;;;;;;5009209;28;19928;-71
2022/11/15 11:42:36;;;;;;;;;;;13.20;99.90;;;;;;4948917;28;207436;-70
2022/11/15 11:45:18;;;;;;;;;;;13.20;99.90;;;;;;5005987;28;19922;-70
2022/11/15 11:47:48;;;;;;;;;;;13.20;99.90;;;;;;4939775;28;208357;-70
2022/11/15 11:50:19;;;;;;;;;;;13.10;99.90;;;;;;4995467;28;19929;-70
2022/11/15 11:52:57;;;;;;;;;;;13.10;99.90;;;;;;4939857;28;232655;-70
2022/11/15 11:55:25;;;;;;;;;;;13.00;99.90;;;;;;4991791;28;19926;-70
2022/11/15 11:58:10;;;;;;;;;;;13.00;99.90;;;;;;4934693;28;207946;-70
2022/11/15 12:00:39;;;;;;;;;;;13.20;99.90;;;;;;4977319;28;19937;-70
2022/11/15 12:03:16;;;;;;;;;;;13.90;99.90;;;;;;4944461;28;221490;-70
2022/11/15 12:05:43;;;;;;;;;;;14.10;99.90;;;;;;4979836;28;19922;-70
2022/11/15 12:08:48;;;;;;;;;;;14.30;99.90;;;;;;4968450;28;144524;-70
2022/11/15 12:11:19;;;;;;;;;;;14.20;99.90;;;;;;4939299;28;20043;-70
2022/11/15 12:13:47;;;;;;;;;;;14.00;99.90;;;;;;4906192;28;220831;-70
2022/11/15 12:16:19;;;;;;;;;;;13.90;99.90;;;;;;4917267;29;19927;-71
2022/11/15 12:18:48;;;;;;;;;;;13.80;99.90;;;;;;4932202;28;213766;-71
2022/11/15 12:21:33;;;;;;;;;;;13.80;99.90;;;;;;4922337;28;19931;-70
2022/11/15 12:24:03;;;;;;;;;;;13.90;99.90;;;;;;4931516;28;48722;-72
2022/11/15 12:26:51;;;;;;;;;;;14.10;99.90;;;;;;4936133;29;19923;-71
2022/11/15 12:29:20;;;;;;;;;;;14.60;99.90;;;;;;4930926;28;227531;-71
2022/11/15 12:31:50;;;;;;;;;;;15.10;99.90;;;;;;4935239;29;19927;-71
2022/11/15 12:34:22;;;;;;;;;;;15.60;99.90;;;;;;4929186;28;200597;-71
2022/11/15 12:36:49;;;;;;;;;;;16.30;99.90;;;;;;4937868;29;19927;-71
2022/11/15 12:39:15;;;;;;;;;;;17.30;99.90;;;;;;4922674;28;271875;-71
2022/11/15 12:41:43;;;;;;;;;;;18.30;99.90;;;;;;4950620;28;20272;-69
2022/11/15 12:44:13;;;;;;;;;;;19.30;99.90;;;;;;4960381;28;206810;-70
2022/11/15 12:46:39;;;;;;;;;;;19.70;99.90;;;;;;4972426;28;19926;-70
2022/11/15 12:49:31;;;;;;;;;;;19.60;99.90;;;;;;4953008;28;166111;-70
2022/11/15 12:51:57;;;;;;;;;;;18.80;99.90;;;;;;4947180;28;207375;-70
2022/11/15 12:54:22;;;;;;;;;;;17.70;99.90;;;;;;4995881;28;19922;-69
2022/11/15 12:57:03;;;;;;;;;;;16.70;99.90;;;;;;4976547;28;20014;-69
2022/11/15 12:59:48;;;;;;;;;;;15.90;99.90;;;;;;4917078;28;280988;-70
2022/11/15 13:02:23;;;;;;;;;;;15.30;99.90;;;;;;4918364;28;234242;-70
2022/11/15 13:04:50;;;;;;;;;;;15.90;99.90;;;;;;4993580;28;19944;-70
2022/11/15 13:07:42;;;;;;;;;;;16.90;99.90;;;;;;4953262;28;202578;-69
2022/11/15 13:10:11;;;;;;;;;;;16.40;99.90;;;;;;4972936;28;19945;-70
2022/11/15 13:12:40;;;;;;;;;;;17.00;99.90;;;;;;4905166;28;206314;-70
2022/11/15 13:15:26;;;;;;;;;;;17.20;99.90;;;;;;4961903;28;19922;-70
2022/11/15 13:17:53;;;;;;;;;;;17.40;99.90;;;;;;4910229;28;193327;-69
2022/11/15 13:20:19;;;;;;;;;;;16.90;99.90;;;;;;4948967;28;19932;-70
2022/11/15 13:22:59;;;;;;;;;;;16.40;99.90;;;;;;4915805;28;192776;-69
2022/11/15 13:25:34;;;;;;;;;;;16.30;99.90;;;;;;4964662;28;19926;-69
2022/11/15 13:28:00;;;;;;;;;;;16.00;99.90;;;;;;4905776;28;180162;-69
2022/11/15 13:30:30;;;;;;;;;;;16.20;99.90;;;;;;4946783;28;19927;-70
2022/11/15 13:33:00;;;;;;;;;;;15.90;99.90;;;;;;4920252;28;205636;-69
2022/11/15 13:35:27;;;;;;;;;;;15.80;99.90;;;;;;4967847;28;19923;-69
2022/11/15 13:37:54;;;;;;;;;;;15.70;99.90;;;;;;4909738;28;210490;-69
2022/11/15 13:40:27;;;;;;;;;;;15.60;99.90;;;;;;4958369;28;19938;-69
2022/11/15 13:42:53;;;;;;;;;;;15.90;99.90;;;;;;4933394;28;113694;-70
2022/11/15 13:45:19;;;;;;;;;;;15.60;99.90;;;;;;4944567;28;19933;-69
2022/11/15 13:47:50;;;;;;;;;;;15.90;99.90;;;;;;4938227;28;211319;-69
2022/11/15 13:50:16;;;;;;;;;;;16.30;99.90;;;;;;5000627;28;19929;-70
2022/11/15 13:52:43;;;;;;;;;;;17.10;99.90;;;;;;4929837;28;187929;-70
2022/11/15 13:55:15;;;;;;;;;;;17.80;99.90;;;;;;4978360;28;19968;-70
2022/11/15 13:57:45;;;;;;;;;;;18.20;99.90;;;;;;4936130;28;209573;-69
2022/11/15 14:00:30;;;;;;;;;;;18.30;99.90;;;;;;5001874;28;19926;-71
2022/11/15 14:02:57;;;;;;;;;;;18.30;99.90;;;;;;4931431;28;224120;-71
2022/11/15 14:05:26;;;;;;;;;;;18.00;99.90;;;;;;4993282;28;19922;-71
2022/11/15 14:07:56;;;;;;;;;;;17.60;99.90;;;;;;4940581;28;234279;-71
2022/11/15 14:10:28;;;;;;;;;;;17.20;99.90;;;;;;4986656;28;19922;-71
2022/11/15 14:12:54;;;;;;;;;;;16.90;99.90;;;;;;4933211;28;218360;-71
2022/11/15 14:15:33;;;;;;;;;;;16.60;99.90;;;;;;4978739;28;20311;-71
2022/11/15 14:17:59;;;;;;;;;;;16.30;99.90;;;;;;4918716;28;208923;-70
2022/11/15 14:20:25;;;;;;;;;;;15.80;99.90;;;;;;4967066;28;19937;-71
2022/11/15 14:22:55;;;;;;;;;;;15.30;99.90;;;;;;4950243;28;132533;-70
2022/11/15 14:25:22;;;;;;;;;;;15.00;99.90;;;;;;4994885;28;19929;-71
2022/11/15 14:28:06;;;;;;;;;;;14.60;99.90;;;;;;4929014;28;219984;-71
2022/11/15 14:30:32;;;;;;;;;;;14.40;99.90;;;;;;4963119;28;19926;-70
2022/11/15 14:32:58;;;;;;;;;;;14.00;99.90;;;;;;4927144;28;207089;-70
2022/11/15 14:35:24;;;;;;;;;;;13.90;99.90;;;;;;4996294;28;20306;-70
2022/11/15 14:37:50;;;;;;;;;;;13.70;99.90;;;;;;4926869;28;269373;-70